Time;durP1;ratioP1;P1;durP2;ratioP2;P2;SDS_P1;SDS_P2;PMS_P1;PMS_P2;Temp;Humidity;BMP_temperature;BMP_pressure;BME280_temperature;BME280_humidity;BME280_pressure;Samples;Min_cycle;Max_cycle;Signal;HPM_P1;HPM_P2
2021/12/21 00:00:42;;;;;;;5.10;3.10;;;;;;;0.72;69.99;100779.25;6181106;23;20017;-86
2021/12/21 00:03:08;;;;;;;4.10;2.63;;;;;;;0.64;70.24;100785.66;6153912;23;20021;-86
2021/12/21 00:05:35;;;;;;;3.67;2.28;;;;;;;0.65;70.35;100784.50;6181430;23;20448;-83
2021/12/21 00:08:03;;;;;;;5.93;2.80;;;;;;;0.72;69.99;100789.38;6181463;23;20017;-86
2021/12/21 00:10:31;;;;;;;4.28;2.60;;;;;;;0.70;70.16;100791.63;6181238;23;20088;-86
2021/12/21 00:15:35;;;;;;;4.68;2.80;;;;;;;0.63;70.39;100783.28;6181280;23;20009;-86
2021/12/21 00:18:08;;;;;;;4.78;2.70;;;;;;;0.59;70.71;100790.59;6181330;23;20025;-86
2021/12/21 00:25:44;;;;;;;4.28;2.80;;;;;;;0.46;71.34;100789.88;6158798;23;20018;-86
2021/12/21 00:28:09;;;;;;;4.43;2.60;;;;;;;0.43;71.33;100798.75;6155633;23;20550;-82
2021/12/21 00:30:35;;;;;;;4.30;2.70;;;;;;;0.32;71.69;100784.84;6183348;23;20102;-82
2021/12/21 00:33:00;;;;;;;3.60;2.63;;;;;;;0.37;71.45;100806.41;6182951;23;20056;-81
2021/12/21 00:35:26;;;;;;;6.95;3.00;;;;;;;0.29;71.66;100782.00;6183196;23;20017;-81
2021/12/21 00:37:52;;;;;;;4.82;2.90;;;;;;;0.36;72.04;100813.03;6183000;23;20009;-82
2021/12/21 00:40:17;;;;;;;3.90;2.55;;;;;;;0.40;71.58;100815.84;6183325;23;20510;-82
2021/12/21 00:42:43;;;;;;;4.70;2.78;;;;;;;0.34;71.79;100806.31;6182569;23;20013;-82
2021/12/21 00:45:09;;;;;;;5.43;3.00;;;;;;;0.31;72.25;100821.47;6182996;23;20079;-86
2021/12/21 00:47:39;;;;;;;5.63;2.90;;;;;;;0.33;71.96;100823.81;6182742;23;20001;-82
2021/12/21 00:50:07;;;;;;;5.22;2.90;;;;;;;0.28;72.13;100816.72;6156669;23;20072;-82
2021/12/21 00:52:32;;;;;;;4.25;2.63;;;;;;;0.33;72.35;100826.56;6156646;23;20096;-81
2021/12/21 00:54:58;;;;;;;4.00;2.47;;;;;;;0.41;71.93;100834.59;6182589;23;20745;-81
2021/12/21 00:57:23;;;;;;;5.00;2.42;;;;;;;0.41;72.19;100833.78;6182683;23;20039;-82
2021/12/21 00:59:49;;;;;;;5.75;2.70;;;;;;;0.48;71.73;100834.00;6182339;23;20012;-82
2021/12/21 01:02:14;;;;;;;4.00;2.70;;;;;;;0.43;71.85;100836.97;6182655;23;20092;-82
2021/12/21 01:04:45;;;;;;;3.65;2.45;;;;;;;0.38;72.04;100837.22;6182611;23;20342;-82
2021/12/21 01:12:44;;;;;;;5.30;3.10;;;;;;;0.34;72.38;100836.34;6183124;23;20013;-82
2021/12/21 01:17:53;;;;;;;3.72;2.80;;;;;;;0.34;73.10;100852.72;6157160;23;20013;-82
2021/12/21 01:20:30;;;;;;;5.03;2.78;;;;;;;0.25;73.50;100846.59;6183028;23;20013;-82
2021/12/21 01:28:35;;;;;;;3.85;2.80;;;;;;;0.05;74.57;100853.84;6155964;23;20447;-86
2021/12/21 01:31:15;;;;;;;4.82;2.80;;;;;;;0.04;75.06;100857.72;6180696;23;20088;-86
2021/12/21 01:36:30;;;;;;;5.65;3.08;;;;;;;-0.01;75.30;100844.34;6182194;23;20386;-87
2021/12/21 01:39:05;;;;;;;5.28;2.92;;;;;;;0.05;75.31;100858.50;6182081;23;20088;-86
2021/12/21 01:41:40;;;;;;;5.10;3.20;;;;;;;0.06;75.57;100849.97;6155930;23;20096;-86
2021/12/21 01:52:09;;;;;;;4.82;3.22;;;;;;;0.11;75.14;100857.13;6157151;23;20001;-86
2021/12/21 01:54:35;;;;;;;4.63;2.60;;;;;;;0.10;75.18;100842.69;6183169;23;20084;-86
2021/12/21 01:57:01;;;;;;;5.18;2.85;;;;;;;0.05;75.39;100853.03;6182469;23;20121;-86
2021/12/21 01:59:27;;;;;;;5.40;3.03;;;;;;;-0.10;75.74;100841.75;6181358;23;20022;-86
2021/12/21 02:01:53;;;;;;;4.43;3.13;;;;;;;-0.09;75.90;100854.25;6134692;23;20632;-83
2021/12/21 02:04:19;;;;;;;7.18;3.35;;;;;;;-0.20;76.25;100847.66;6183129;23;20362;-82
2021/12/21 02:06:45;;;;;;;7.30;3.45;;;;;;;-0.24;76.59;100838.59;6157678;23;20032;-81
2021/12/21 02:09:11;;;;;;;5.65;3.05;;;;;;;-0.25;76.84;100839.75;6156846;23;20008;-81
2021/12/21 02:11:37;;;;;;;4.90;3.40;;;;;;;-0.26;76.86;100838.16;6156875;23;20411;-82
2021/12/21 02:14:05;;;;;;;5.00;2.95;;;;;;;-0.27;76.90;100842.00;6181328;23;20339;-81
2021/12/21 02:17:38;;;;;;;4.78;3.00;;;;;;;-0.30;76.78;100845.44;6157246;23;20423;-81
2021/12/21 02:19:32;;;;;;;4.20;2.85;;;;;;;-0.37;77.07;100842.50;6149527;23;20016;-81
2021/12/21 02:22:08;;;;;;;4.85;3.10;;;;;;;-0.43;77.72;100849.31;6159171;23;20474;-81
2021/12/21 02:24:45;;;;;;;5.57;3.22;;;;;;;-0.51;77.49;100842.06;6183814;23;20347;-81
2021/12/21 02:27:28;;;;;;;6.32;3.50;;;;;;;-0.60;77.86;100838.66;6182859;23;20427;-82
2021/12/21 02:29:54;;;;;;;;;;;;;;;-0.64;78.05;100859.56;6157185;23;20017;-81
2021/12/21 02:32:20;;;;;;;4.60;3.20;;;;;;;-0.68;78.18;100848.53;6181806;23;19912;-81
2021/12/21 02:34:46;;;;;;;4.50;2.83;;;;;;;-0.73;78.29;100853.44;6183471;23;20009;-81
2021/12/21 02:37:12;;;;;;;6.05;3.30;;;;;;;-0.75;78.59;100853.78;6182772;23;20087;-81
2021/12/21 02:39:38;;;;;;;4.53;3.22;;;;;;;-0.75;78.73;100872.06;6183021;23;20020;-81
2021/12/21 02:42:05;;;;;;;4.82;3.60;;;;;;;-0.80;79.30;100877.72;6182499;23;20009;-82
2021/12/21 02:44:31;;;;;;;5.90;3.22;;;;;;;-0.82;79.41;100871.81;6157031;23;20352;-81
2021/12/21 02:46:57;;;;;;;4.97;3.20;;;;;;;-0.85;79.42;100869.78;6156473;23;20367;-81
2021/12/21 02:49:22;;;;;;;6.43;3.47;;;;;;;-0.86;79.27;100868.19;6182976;23;20080;-81
2021/12/21 02:51:50;;;;;;;5.45;3.47;;;;;;;-0.85;79.45;100864.34;6156533;23;20080;-81
2021/12/21 02:54:18;;;;;;;5.45;3.28;;;;;;;-0.89;79.45;100869.69;6183248;23;20398;-81
2021/12/21 02:56:43;;;;;;;8.52;3.60;;;;;;;-0.93;79.61;100859.81;6157025;23;20016;-81
2021/12/21 02:59:09;;;;;;;4.78;3.25;;;;;;;-0.95;79.62;100855.47;6156393;23;20017;-81
2021/12/21 03:01:35;;;;;;;4.47;3.33;;;;;;;-0.91;79.75;100850.16;6183041;23;20024;-81
2021/12/21 03:04:01;;;;;;;4.22;3.00;;;;;;;-0.96;79.44;100843.00;6156458;23;20020;-81
2021/12/21 03:09:37;;;;;;;5.00;3.50;;;;;;;-0.93;79.46;100846.19;6182331;23;20062;-82
2021/12/21 03:11:58;;;;;;;6.40;3.30;;;;;;;-0.90;79.49;100853.66;6182387;23;20084;-81
2021/12/21 03:14:27;;;;;;;5.03;3.08;;;;;;;-0.88;79.28;100854.09;6183026;23;20498;-81
2021/12/21 03:16:53;;;;;;;5.72;3.30;;;;;;;-0.93;79.29;100860.59;6156286;23;20013;-81
2021/12/21 03:19:19;;;;;;;5.20;3.30;;;;;;;-0.93;79.35;100858.66;6182876;23;20009;-81
2021/12/21 03:21:45;;;;;;;6.07;3.35;;;;;;;-0.93;79.53;100862.53;6156800;23;20017;-81
2021/12/21 03:24:10;;;;;;;4.70;3.08;;;;;;;-0.94;79.41;100867.19;6181007;23;20009;-81
2021/12/21 03:26:37;;;;;;;5.75;3.47;;;;;;;-0.89;79.27;100868.88;6182972;23;20387;-81
2021/12/21 03:29:05;;;;;;;6.75;3.70;;;;;;;-0.88;79.07;100873.19;6156477;23;20024;-81
2021/12/21 03:31:31;;;;;;;4.35;3.25;;;;;;;-0.91;79.16;100871.13;6183092;23;20001;-81
2021/12/21 03:33:56;;;;;;;5.57;3.38;;;;;;;-0.96;79.31;100869.44;6182286;23;20581;-81
2021/12/21 03:36:22;;;;;;;7.47;3.25;;;;;;;-0.99;79.21;100870.91;6183164;23;20001;-81
2021/12/21 03:38:59;;;;;;;6.43;4.00;;;;;;;-0.95;79.34;100873.75;6156194;23;20021;-81
2021/12/21 03:41:25;;;;;;;6.07;3.55;;;;;;;-0.93;79.21;100873.41;6182832;23;20072;-81
2021/12/21 03:43:50;;;;;;;6.28;3.60;;;;;;;-1.00;79.21;100879.41;6182826;23;20012;-81
2021/12/21 03:46:16;;;;;;;5.45;3.33;;;;;;;-0.99;79.41;100881.81;6182877;23;20013;-81
2021/12/21 03:48:45;;;;;;;6.53;3.70;;;;;;;-1.03;79.66;100875.44;6182696;23;20331;-81
2021/12/21 03:51:12;;;;;;;6.55;3.70;;;;;;;-1.05;79.66;100883.16;6155962;23;20013;-81
2021/12/21 03:53:38;;;;;;;5.90;3.55;;;;;;;-1.18;79.59;100876.13;6182968;23;20072;-81
2021/12/21 03:56:24;;;;;;;4.68;3.60;;;;;;;-1.21;80.07;100890.38;6182729;23;20020;-81
2021/12/21 03:58:49;;;;;;;9.50;3.40;;;;;;;-1.25;80.61;100888.69;6182351;23;20017;-81
2021/12/21 04:01:16;;;;;;;6.57;3.80;;;;;;;-1.28;80.77;100887.41;6182275;23;20164;-81
2021/12/21 04:03:41;;;;;;;6.90;3.58;;;;;;;-1.31;80.98;100890.81;6157018;23;20391;-81
2021/12/21 04:06:07;;;;;;;5.55;3.75;;;;;;;-1.32;81.27;100899.31;6133744;23;20016;-81
2021/12/21 04:08:35;;;;;;;4.57;3.53;;;;;;;-1.37;81.11;100900.31;6184754;23;20088;-81
2021/12/21 04:11:02;;;;;;;5.20;3.70;;;;;;;-1.38;81.33;100912.34;6184389;23;20020;-81
2021/12/21 04:13:29;;;;;;;4.88;3.65;;;;;;;-1.36;81.62;100912.81;6184455;23;20013;-81
2021/12/21 04:15:54;;;;;;;6.97;3.97;;;;;;;-1.38;82.03;100895.22;6184782;23;20005;-81
2021/12/21 04:18:22;;;;;;;4.70;3.30;;;;;;;-1.37;81.71;100903.03;6184644;23;20096;-81
2021/12/21 04:20:48;;;;;;;5.50;3.80;;;;;;;-1.34;81.63;100913.28;6184633;23;20419;-81
2021/12/21 04:23:14;;;;;;;7.47;3.97;;;;;;;-1.36;81.74;100912.00;6157702;23;20073;-81
2021/12/21 04:25:39;;;;;;;9.48;5.13;;;;;;;-1.37;81.51;100913.16;6184763;23;20399;-81
2021/12/21 04:28:05;;;;;;;7.47;4.97;;;;;;;-1.33;81.59;100925.72;6183232;23;20005;-81
2021/12/21 04:30:31;;;;;;;7.35;4.13;;;;;;;-1.36;81.42;100920.16;6133139;23;20100;-81
2021/12/21 04:32:56;;;;;;;6.63;4.32;;;;;;;-1.40;81.74;100920.03;6183489;23;20067;-81
2021/12/21 04:35:22;;;;;;;6.00;4.57;;;;;;;-1.43;81.93;100926.97;6184567;23;20013;-81
2021/12/21 04:37:53;;;;;;;6.80;3.90;;;;;;;-1.52;81.65;100917.28;6157610;23;20005;-81
2021/12/21 04:40:22;;;;;;;6.88;3.85;;;;;;;-1.58;81.80;100913.19;6183517;23;20024;-81
2021/12/21 04:42:48;;;;;;;6.97;3.92;;;;;;;-1.65;82.52;100918.34;6158843;23;20005;-81
2021/12/21 04:45:13;;;;;;;5.57;3.70;;;;;;;-1.67;82.54;100920.63;6183978;23;20105;-80
2021/12/21 04:47:39;;;;;;;6.05;3.97;;;;;;;-1.66;83.04;100914.06;6184294;23;20013;-81
2021/12/21 04:50:05;;;;;;;5.78;3.90;;;;;;;-1.63;83.02;100927.00;6183869;23;20108;-81
2021/12/21 04:52:30;;;;;;;6.80;4.00;;;;;;;-1.67;82.89;100926.06;6157777;23;20005;-81
2021/12/21 04:54:56;;;;;;;6.78;3.78;;;;;;;-1.69;82.77;100928.31;6184252;23;20017;-81
2021/12/21 04:57:22;;;;;;;5.53;3.53;;;;;;;-1.72;82.43;100939.88;6183943;23;20088;-81
2021/12/21 04:59:47;;;;;;;7.68;3.85;;;;;;;-1.71;82.84;100941.47;6157497;23;20441;-81
2021/12/21 05:02:13;;;;;;;6.32;4.13;;;;;;;-1.75;82.52;100946.78;6154210;23;20017;-81
2021/12/21 05:04:39;;;;;;;10.57;3.85;;;;;;;-1.84;83.47;100942.53;6128082;23;20009;-81
2021/12/21 05:07:05;;;;;;;6.43;4.13;;;;;;;-1.96;83.82;100946.78;6153837;23;20052;-81
2021/12/21 05:09:39;;;;;;;5.57;3.85;;;;;;;-1.97;84.48;100947.88;6154292;23;20056;-81
2021/12/21 05:12:07;;;;;;;6.82;4.18;;;;;;;-1.96;85.26;100957.66;6130108;23;20336;-81
2021/12/21 05:14:33;;;;;;;5.97;3.65;;;;;;;-2.01;85.44;100946.97;6153508;23;20413;-81
2021/12/21 05:16:59;;;;;;;7.60;4.82;;;;;;;-1.96;85.57;100951.41;6154302;23;20010;-81
2021/12/21 05:19:24;;;;;;;7.97;4.47;;;;;;;-2.01;85.44;100938.81;6127630;23;20100;-81
2021/12/21 05:21:50;;;;;;;7.25;4.72;;;;;;;-2.00;85.11;100945.84;6153919;23;20021;-81
2021/12/21 05:24:15;;;;;;;5.57;3.75;;;;;;;-2.05;84.79;100946.03;6153779;23;19998;-81
2021/12/21 05:26:41;;;;;;;7.18;4.03;;;;;;;-2.00;85.11;100954.00;6154522;23;20317;-81
2021/12/21 05:29:06;;;;;;;7.30;4.30;;;;;;;-2.01;84.92;100954.31;6153431;23;20002;-81
2021/12/21 05:31:32;;;;;;;6.68;4.53;;;;;;;-1.93;85.13;100951.53;6154104;23;20462;-81
2021/12/21 05:33:58;;;;;;;8.07;4.78;;;;;;;-1.84;84.90;100947.97;6153512;23;20009;-81
2021/12/21 05:36:24;;;;;;;6.50;4.00;;;;;;;-1.78;84.48;100954.81;6153734;23;20025;-82
2021/12/21 05:38:54;;;;;;;6.97;4.53;;;;;;;-1.77;84.26;100950.94;6153729;23;20092;-82
2021/12/21 05:41:27;;;;;;;6.85;4.72;;;;;;;-1.77;84.06;100957.19;6153175;23;20387;-81
2021/12/21 05:43:53;;;;;;;7.55;4.80;;;;;;;-1.78;84.11;100962.97;6153742;23;20017;-81
2021/12/21 05:46:18;;;;;;;8.43;4.90;;;;;;;-1.86;83.48;100969.25;6127544;23;20379;-82
2021/12/21 05:48:44;;;;;;;10.00;5.18;;;;;;;-1.95;84.22;100964.69;6153533;23;20044;-81
2021/12/21 05:51:09;;;;;;;11.63;5.22;;;;;;;-2.01;83.88;100968.72;6127439;23;20400;-81
2021/12/21 05:53:35;;;;;;;10.43;5.10;;;;;;;-1.99;84.47;100969.19;6152324;23;20343;-81
2021/12/21 05:56:00;;;;;;;9.75;5.30;;;;;;;-2.03;85.07;100957.38;6127358;23;20005;-81
2021/12/21 05:58:26;;;;;;;8.25;5.15;;;;;;;-1.99;85.14;100958.31;6153153;23;20018;-81
2021/12/21 06:00:54;;;;;;;8.57;5.25;;;;;;;-2.00;85.50;100958.63;6153363;23;20058;-81
2021/12/21 06:03:20;;;;;;;11.95;6.05;;;;;;;-1.96;85.54;100952.22;6151728;23;20240;-82
2021/12/21 06:05:46;;;;;;;17.52;7.82;;;;;;;-1.93;85.36;100950.75;6151538;23;20077;-82
2021/12/21 06:08:11;;;;;;;23.55;10.18;;;;;;;-1.92;85.33;100944.97;6150891;23;20005;-81
2021/12/21 06:10:40;;;;;;;27.90;12.05;;;;;;;-1.83;85.04;100952.28;6151970;23;20017;-81
2021/12/21 06:26:14;;;;;;;9.32;5.88;;;;;;;-2.15;86.39;100965.44;6129087;23;20020;-81
2021/12/21 06:28:42;;;;;;;9.90;5.97;;;;;;;-2.12;86.44;100964.78;6153475;23;20001;-81
2021/12/21 06:31:08;;;;;;;10.23;5.68;;;;;;;-2.11;86.39;100965.59;6126733;23;20024;-81
2021/12/21 06:33:34;;;;;;;7.82;4.95;;;;;;;-2.13;86.68;100957.75;6127125;23;20025;-81
2021/12/21 06:36:00;;;;;;;9.52;6.13;;;;;;;-2.06;86.52;100952.56;6126841;23;20005;-81
2021/12/21 06:38:26;;;;;;;11.68;7.20;;;;;;;-2.07;86.70;100964.59;6153018;23;20014;-81
2021/12/21 06:40:51;;;;;;;12.68;7.20;;;;;;;-2.07;86.64;100959.16;6153136;23;20017;-81
2021/12/21 06:43:18;;;;;;;9.30;5.82;;;;;;;-2.07;86.73;100953.72;6148555;23;20072;-82
2021/12/21 07:03:17;;;;;;;7.45;4.90;;;;;;;-1.78;86.35;100955.59;6167745;23;20136;-80
2021/12/21 07:05:43;;;;;;;6.80;4.72;;;;;;;-1.72;86.71;100956.97;6180173;23;20092;-80
2021/12/21 07:08:13;;;;;;;6.80;4.53;;;;;;;-1.63;86.50;100959.63;6152858;23;20017;-80
2021/12/21 07:10:40;;;;;;;9.98;5.22;;;;;;;-1.54;85.79;100965.81;6154483;23;20024;-80
2021/12/21 07:18:34;;;;;;;9.57;5.38;;;;;;;-1.29;84.63;100967.47;6180344;23;20446;-80
2021/12/21 07:21:01;;;;;;;8.30;5.75;;;;;;;-1.17;84.17;100972.97;6181206;23;20013;-81
2021/12/21 07:23:28;;;;;;;15.45;6.30;;;;;;;-1.16;83.96;100971.84;6181989;23;20013;-81
2021/12/21 07:25:53;;;;;;;9.93;6.90;;;;;;;-1.13;83.68;100968.44;6182089;23;20001;-81
2021/12/21 07:28:20;;;;;;;9.98;6.63;;;;;;;-1.08;83.46;100970.97;6155988;23;20342;-81
2021/12/21 07:30:47;;;;;;;9.75;6.60;;;;;;;-1.04;83.24;100965.63;6181838;23;20139;-81
2021/12/21 07:33:14;;;;;;;9.45;5.80;;;;;;;-0.93;82.74;100973.03;6181996;23;20021;-81
2021/12/21 07:35:40;;;;;;;9.80;5.88;;;;;;;-0.88;82.43;100973.94;6182549;23;20036;-81
2021/12/21 07:38:05;;;;;;;11.43;6.60;;;;;;;-0.80;82.09;100973.06;6181722;23;20013;-81
2021/12/21 07:40:31;;;;;;;11.60;6.53;;;;;;;-0.73;81.70;100965.16;6181676;23;20492;-80
2021/12/21 07:42:57;;;;;;;9.93;6.28;;;;;;;-0.65;81.43;100972.41;6181898;23;20012;-81
2021/12/21 07:45:22;;;;;;;9.32;6.93;;;;;;;-0.61;81.27;100978.78;6181540;23;20044;-80
2021/12/21 07:47:48;;;;;;;9.75;6.55;;;;;;;-0.58;81.36;100975.38;6182312;23;20017;-81
2021/12/21 07:50:14;;;;;;;9.25;6.18;;;;;;;-0.41;81.66;100971.63;6155313;23;20100;-80
2021/12/21 07:52:39;;;;;;;9.18;5.55;;;;;;;-0.39;81.95;100969.34;6181903;23;20041;-80
2021/12/21 07:55:05;;;;;;;11.02;5.90;;;;;;;-0.14;80.95;100974.47;6181758;23;20388;-81
2021/12/21 07:57:31;;;;;;;8.13;5.75;;;;;;;-0.04;80.55;100971.25;6155923;23;20065;-81
2021/12/21 07:59:57;;;;;;;9.68;5.93;;;;;;;0.04;80.07;100980.47;6155219;23;20013;-81
2021/12/21 08:02:25;;;;;;;8.32;5.57;;;;;;;0.11;79.54;100960.78;6181562;23;20116;-81
2021/12/21 08:04:52;;;;;;;11.52;6.53;;;;;;;0.15;78.53;100972.63;6181713;23;20020;-81
2021/12/21 08:07:22;;;;;;;9.23;5.78;;;;;;;0.15;78.49;100962.50;6155991;23;20036;-81
2021/12/21 08:09:51;;;;;;;8.32;5.57;;;;;;;0.18;78.20;100978.16;6181856;23;20045;-81
2021/12/21 08:12:18;;;;;;;7.53;5.32;;;;;;;0.25;78.30;100974.84;6182614;23;20100;-81
2021/12/21 08:14:45;;;;;;;8.50;5.40;;;;;;;0.25;77.93;100977.56;6181296;23;20047;-81
2021/12/21 08:17:10;;;;;;;10.80;5.60;;;;;;;0.29;77.77;100975.75;6181749;23;20059;-81
2021/12/21 08:19:36;;;;;;;7.28;5.38;;;;;;;0.17;78.08;100970.31;6181798;23;20013;-81
2021/12/21 08:22:02;;;;;;;8.23;5.35;;;;;;;0.19;77.83;100979.78;6181939;23;20048;-81
2021/12/21 08:24:29;;;;;;;8.93;5.43;;;;;;;0.30;77.88;100980.06;6181510;23;20020;-81
2021/12/21 08:26:59;;;;;;;10.68;5.60;;;;;;;0.20;77.81;100980.56;6182010;23;20341;-81
2021/12/21 08:29:25;;;;;;;9.73;5.40;;;;;;;0.17;77.93;100986.69;6180676;23;20041;-82
2021/12/21 08:31:51;;;;;;;9.65;5.82;;;;;;;0.22;77.53;100983.72;6181895;23;20020;-80
2021/12/21 08:34:17;;;;;;;10.50;5.72;;;;;;;0.25;78.02;100994.75;6181344;23;20017;-81
2021/12/21 08:36:42;;;;;;;10.43;6.07;;;;;;;0.29;78.09;100990.19;6181782;23;20005;-81
2021/12/21 08:39:08;;;;;;;10.85;5.75;;;;;;;0.42;76.92;100983.56;6181546;23;20013;-81
2021/12/21 08:41:39;;;;;;;7.85;5.13;;;;;;;0.34;76.57;100981.78;6181668;23;20016;-81
2021/12/21 08:44:05;;;;;;;7.28;5.10;;;;;;;0.39;76.73;100986.19;6179742;23;20393;-81
2021/12/21 08:46:31;;;;;;;7.63;5.68;;;;;;;0.40;76.60;100991.31;6180959;23;20009;-81
2021/12/21 08:48:56;;;;;;;10.95;5.18;;;;;;;0.33;76.56;100990.28;6180798;23;20021;-80
2021/12/21 08:51:22;;;;;;;9.80;5.97;;;;;;;0.38;76.55;100992.78;6182441;23;20059;-81
2021/12/21 08:53:47;;;;;;;10.95;5.53;;;;;;;0.54;76.01;101004.56;6182923;23;20009;-81
2021/12/21 08:56:13;;;;;;;11.20;5.75;;;;;;;0.53;75.55;100997.50;6182649;23;20013;-81
2021/12/21 08:58:38;;;;;;;7.47;5.20;;;;;;;0.54;75.61;101001.84;6181927;23;20020;-81
2021/12/21 09:01:04;;;;;;;8.23;5.78;;;;;;;0.52;75.30;101001.41;6182940;23;20453;-81
2021/12/21 09:03:30;;;;;;;10.13;5.47;;;;;;;0.62;75.51;100997.38;6182028;23;20405;-81
2021/12/21 09:05:56;;;;;;;7.80;4.70;;;;;;;0.53;74.41;100991.28;6182909;23;20019;-81
2021/12/21 09:08:22;;;;;;;8.25;5.35;;;;;;;0.69;74.12;100989.41;6182533;23;20076;-81
2021/12/21 09:10:47;;;;;;;10.95;5.80;;;;;;;0.72;74.41;100997.69;6182839;23;20009;-81
2021/12/21 09:13:13;;;;;;;16.45;6.25;;;;;;;0.82;74.10;100999.91;6181763;23;20112;-81
2021/12/21 09:15:38;;;;;;;8.57;5.93;;;;;;;0.75;73.46;100991.53;6183161;23;20017;-81
2021/12/21 09:18:05;;;;;;;7.32;5.38;;;;;;;0.84;73.16;101000.38;6156526;23;20080;-81
2021/12/21 09:20:31;;;;;;;8.25;5.50;;;;;;;0.84;72.66;100999.56;6156227;23;20017;-81
2021/12/21 09:22:57;;;;;;;8.10;5.22;;;;;;;0.87;73.04;101002.41;6182573;23;20035;-81
2021/12/21 09:25:23;;;;;;;8.52;5.50;;;;;;;0.85;72.53;100995.72;6182225;23;20156;-81
2021/12/21 09:27:50;;;;;;;8.73;5.82;;;;;;;0.96;72.72;100996.78;6182632;23;20048;-81
2021/12/21 09:30:18;;;;;;;7.88;5.50;;;;;;;1.10;72.83;101002.63;6182919;23;20009;-80
2021/12/21 09:32:44;;;;;;;8.05;5.65;;;;;;;1.13;73.04;100993.75;6183250;23;20009;-81
2021/12/21 09:35:09;;;;;;;8.07;5.72;;;;;;;1.13;73.36;100991.03;6182123;23;20027;-81
2021/12/21 09:37:35;;;;;;;9.07;5.97;;;;;;;1.19;73.74;100991.53;6182770;23;20345;-81
2021/12/21 09:40:08;;;;;;;9.68;5.68;;;;;;;1.27;72.78;100999.56;6182509;23;19997;-81
2021/12/21 09:42:34;;;;;;;10.27;5.70;;;;;;;1.38;72.20;100997.09;6182063;23;20017;-80
2021/12/21 09:45:00;;;;;;;7.15;4.97;;;;;;;1.40;70.89;100989.34;6181649;23;20439;-80
2021/12/21 09:47:26;;;;;;;8.52;5.25;;;;;;;1.48;71.08;100996.59;6182182;23;20020;-81
2021/12/21 09:49:52;;;;;;;8.35;5.40;;;;;;;1.38;70.90;100986.16;6155893;23;20025;-80
2021/12/21 09:52:23;;;;;;;8.63;5.00;;;;;;;1.33;70.92;100989.97;6182002;23;20510;-81
2021/12/21 09:54:50;;;;;;;6.90;5.10;;;;;;;1.49;71.45;100991.91;6182295;23;20013;-80
2021/12/21 09:57:17;;;;;;;8.27;5.10;;;;;;;1.52;70.27;100978.34;6156240;23;20024;-81
2021/12/21 09:59:48;;;;;;;8.68;5.32;;;;;;;1.72;70.34;100988.22;6181220;23;20005;-80
2021/12/21 10:02:17;;;;;;;8.40;5.63;;;;;;;1.88;69.19;100983.50;6182180;23;20060;-80
2021/12/21 10:05:02;;;;;;;8.07;4.80;;;;;;;2.10;67.80;100976.59;6182879;23;20024;-81
2021/12/21 10:07:28;;;;;;;5.95;4.43;;;;;;;2.32;67.72;100975.09;6182516;23;20009;-81
2021/12/21 10:10:02;;;;;;;6.55;4.20;;;;;;;2.58;64.17;100983.50;6182687;23;20444;-81
2021/12/21 10:12:30;;;;;;;9.30;5.30;;;;;;;2.71;64.48;100986.88;6182513;23;20024;-81
2021/12/21 10:15:07;;;;;;;9.80;6.03;;;;;;;2.81;64.80;100986.28;6182582;23;20012;-81
2021/12/21 10:17:33;;;;;;;7.00;4.82;;;;;;;2.78;64.07;100976.84;6182694;23;20016;-81
2021/12/21 10:20:09;;;;;;;6.57;4.90;;;;;;;2.96;63.35;100987.34;6155086;23;20425;-81
2021/12/21 10:22:35;;;;;;;7.60;5.28;;;;;;;3.09;62.87;100967.66;6175724;23;20017;-82
2021/12/21 10:25:01;;;;;;;6.82;4.63;;;;;;;3.07;62.52;100966.44;6154662;23;20039;-84
2021/12/21 10:27:28;;;;;;;6.93;4.78;;;;;;;3.26;62.66;100969.91;6129347;23;20103;-80
2021/12/21 10:29:57;;;;;;;8.05;4.80;;;;;;;3.33;61.83;100966.50;6181681;23;20013;-79
2021/12/21 10:32:24;;;;;;;6.63;5.07;;;;;;;3.33;60.60;100968.44;6181912;23;20020;-80
2021/12/21 10:34:56;;;;;;;5.60;4.20;;;;;;;3.27;61.26;100973.47;6182138;23;20024;-80
2021/12/21 10:37:28;;;;;;;7.05;4.50;;;;;;;3.32;61.41;100959.41;6155851;23;20014;-80
2021/12/21 10:40:28;;;;;;;7.35;4.25;;;;;;;3.50;60.95;100957.00;6181748;23;20013;-80
2021/12/21 10:43:03;;;;;;;5.90;4.03;;;;;;;3.71;60.06;100952.66;6181272;23;20024;-79
2021/12/21 10:45:37;;;;;;;5.28;3.60;;;;;;;3.81;57.29;100953.16;6154794;23;20013;-80
2021/12/21 10:48:05;;;;;;;6.07;3.65;;;;;;;3.81;57.07;100944.91;6181424;23;20041;-80
2021/12/21 10:50:33;;;;;;;6.32;3.65;;;;;;;3.70;56.29;100939.28;6155363;23;20091;-80
2021/12/21 10:53:01;;;;;;;6.45;3.42;;;;;;;3.75;55.72;100952.69;6156266;23;20132;-80
2021/12/21 10:55:31;;;;;;;6.47;4.00;;;;;;;3.71;54.63;100951.84;6130772;23;20013;-79
2021/12/21 10:58:02;;;;;;;7.45;4.20;;;;;;;3.64;55.01;100947.03;6182398;23;20027;-79
2021/12/21 11:00:27;;;;;;;6.78;4.20;;;;;;;3.73;55.94;100947.56;6181160;23;20445;-80
2021/12/21 11:02:54;;;;;;;6.43;4.20;;;;;;;3.81;55.52;100920.22;6181704;23;20021;-80
2021/12/21 11:05:21;;;;;;;5.80;4.22;;;;;;;3.90;55.60;100927.03;6181716;23;20017;-79
2021/12/21 11:10:15;;;;;;;7.55;4.57;;;;;;;4.21;55.58;100931.38;6181271;23;20019;-79
2021/12/21 11:12:49;;;;;;;5.38;3.72;;;;;;;4.08;55.95;100911.63;6180962;23;20009;-80
2021/12/21 11:15:21;;;;;;;6.45;4.22;;;;;;;4.10;56.50;100911.22;6154704;23;20345;-80
2021/12/21 11:17:47;;;;;;;8.30;4.15;;;;;;;4.02;56.11;100917.78;6155745;23;20009;-79
2021/12/21 11:20:15;;;;;;;8.50;4.57;;;;;;;4.01;57.14;100905.22;6130071;23;20067;-80
2021/12/21 11:22:43;;;;;;;7.70;5.00;;;;;;;4.25;57.02;100913.00;6154277;23;20013;-80
2021/12/21 11:25:11;;;;;;;7.20;5.20;;;;;;;4.26;56.78;100894.56;6155450;23;20515;-79
2021/12/21 11:27:39;;;;;;;6.97;5.22;;;;;;;4.15;58.03;100899.94;6181618;23;20005;-79
2021/12/21 11:30:17;;;;;;;9.85;5.57;;;;;;;4.13;58.42;100891.25;6130471;23;20123;-79
2021/12/21 11:32:48;;;;;;;7.28;5.20;;;;;;;4.17;58.28;100898.38;6181910;23;20084;-80
2021/12/21 11:37:48;;;;;;;9.48;5.78;;;;;;;4.50;58.16;100886.63;6182003;23;20124;-79
2021/12/21 11:40:19;;;;;;;6.45;5.03;;;;;;;4.72;57.30;100881.38;6181281;23;20583;-79
2021/12/21 11:42:51;;;;;;;19.80;4.97;;;;;;;4.84;54.63;100883.84;6181223;23;20017;-80
2021/12/21 11:45:47;;;;;;;6.10;3.63;;;;;;;4.88;53.74;100877.22;6181049;23;20019;-79
2021/12/21 11:48:28;;;;;;;5.43;3.45;;;;;;;4.96;52.57;100872.56;6181822;23;20016;-80
2021/12/21 11:51:01;;;;;;;6.28;3.38;;;;;;;5.02;52.57;100869.09;6129262;23;20017;-80
2021/12/21 11:53:27;;;;;;;7.35;3.40;;;;;;;5.03;50.20;100867.94;6154161;23;20076;-80
2021/12/21 11:55:52;;;;;;;4.20;3.20;;;;;;;4.98;50.17;100870.22;6155248;23;20686;-80
2021/12/21 11:58:25;;;;;;;4.47;2.70;;;;;;;4.88;50.25;100862.69;6180718;23;20020;-79
2021/12/21 12:00:56;;;;;;;4.77;3.13;;;;;;;4.80;50.87;100859.06;6179766;23;20088;-80
2021/12/21 12:03:24;;;;;;;5.68;3.20;;;;;;;4.96;51.03;100856.09;6180736;23;20327;-80
2021/12/21 12:05:57;;;;;;;4.65;2.70;;;;;;;4.86;50.58;100856.75;6181217;23;20013;-80
2021/12/21 12:08:25;;;;;;;5.57;3.28;;;;;;;5.00;50.77;100834.91;6181694;23;20092;-80
2021/12/21 12:10:56;;;;;;;5.03;3.10;;;;;;;5.23;51.07;100851.19;6180888;23;20009;-80
2021/12/21 12:13:39;;;;;;;4.75;3.30;;;;;;;5.15;49.52;100842.88;6180840;23;20017;-80
2021/12/21 12:16:18;;;;;;;3.90;2.85;;;;;;;5.22;49.16;100847.66;6178790;23;20358;-80
2021/12/21 12:18:49;;;;;;;4.57;3.15;;;;;;;5.26;49.60;100834.72;6179753;23;20013;-80
2021/12/21 12:21:31;;;;;;;5.47;3.25;;;;;;;5.40;49.72;100834.81;6179210;23;20025;-80
2021/12/21 12:24:01;;;;;;;4.93;2.95;;;;;;;5.55;48.85;100838.44;6180315;23;20016;-80
2021/12/21 12:26:38;;;;;;;4.90;2.90;;;;;;;5.42;48.51;100834.47;6154995;23;20048;-79
2021/12/21 12:29:19;;;;;;;4.43;3.25;;;;;;;5.39;49.59;100829.69;6181407;23;20456;-79
2021/12/21 12:32:09;;;;;;;5.03;3.30;;;;;;;5.41;49.61;100828.16;6183383;23;20027;-80
2021/12/21 12:34:38;;;;;;;6.78;3.22;;;;;;;5.40;50.48;100834.81;6182424;23;20505;-80
2021/12/21 12:37:15;;;;;;;6.32;3.30;;;;;;;5.13;47.83;100841.69;6183547;23;20013;-80
2021/12/21 12:39:44;;;;;;;4.30;2.97;;;;;;;5.05;49.82;100829.84;6182820;23;20013;-80
2021/12/21 12:42:10;;;;;;;4.28;3.10;;;;;;;4.84;49.19;100834.38;6156930;23;20088;-80
2021/12/21 12:44:39;;;;;;;6.35;3.67;;;;;;;4.72;49.56;100832.69;6182819;23;20024;-80
2021/12/21 12:47:10;;;;;;;5.85;2.97;;;;;;;4.17;49.70;100834.44;6183466;23;20064;-80
2021/12/21 12:49:41;;;;;;;6.63;3.60;;;;;;;4.02;50.77;100836.22;6182614;23;20020;-80